createdAt,value
2023-04-28T00:02:28.814Z,2.00
2023-04-28T00:06:31.971Z,2.17
2023-04-28T00:10:36.291Z,2.03
2023-04-28T00:14:40.610Z,2.05
2023-04-28T00:18:43.236Z,2.20
2023-04-28T00:22:46.123Z,2.33
2023-04-28T00:26:50.081Z,2.47
2023-04-28T00:30:52.797Z,1.73
2023-04-28T00:34:55.813Z,2.03
2023-04-28T00:38:58.529Z,2.53
2023-04-28T00:43:02.574Z,2.33
2023-04-28T00:47:05.644Z,2.53
2023-04-28T00:51:09.081Z,3.22
2023-04-28T00:55:11.785Z,2.85
2023-04-28T00:59:16.066Z,2.88
2023-04-28T01:03:19.063Z,3.00
2023-04-28T01:07:21.834Z,2.65
2023-04-28T01:11:24.522Z,2.83
2023-04-28T01:15:29.585Z,3.05
2023-04-28T01:19:32.322Z,2.63
2023-04-28T01:23:34.960Z,4.55
2023-04-28T01:27:38.963Z,3.03
2023-04-28T01:31:41.748Z,3.03
2023-04-28T01:35:44.460Z,2.50
2023-04-28T01:39:47.343Z,2.53
2023-04-28T01:43:51.967Z,2.08
2023-04-28T01:47:54.652Z,2.28
2023-04-28T01:51:57.353Z,2.63
2023-04-28T01:55:59.969Z,2.53
2023-04-28T02:00:05.369Z,3.70
2023-04-28T02:04:08.107Z,2.15
2023-04-28T02:08:10.780Z,2.28
2023-04-28T02:12:13.426Z,2.80
2023-04-28T02:16:17.475Z,2.63
2023-04-28T02:20:20.447Z,2.42
2023-04-28T02:24:23.094Z,2.80
2023-04-28T02:28:25.809Z,2.80
2023-04-28T02:32:29.921Z,2.55
2023-04-28T02:36:33.296Z,2.30
2023-04-28T02:40:35.966Z,2.75
2023-04-28T02:44:38.611Z,2.53
2023-04-28T02:48:42.567Z,2.63
2023-04-28T02:52:46.495Z,3.00
2023-04-28T02:56:50.448Z,2.13
2023-04-28T03:00:53.148Z,2.38
2023-04-28T03:04:57.229Z,2.05
2023-04-28T03:08:59.908Z,2.55
2023-04-28T03:13:02.535Z,2.78
2023-04-28T03:17:05.213Z,3.08
2023-04-28T03:21:09.403Z,1.83
2023-04-28T03:25:12.206Z,2.20
2023-04-28T03:29:14.760Z,2.35
2023-04-28T03:33:17.424Z,2.35
2023-04-28T03:37:21.374Z,2.72
2023-04-28T03:41:24.032Z,2.28
2023-04-28T03:45:26.788Z,2.60
2023-04-28T03:49:29.766Z,2.63
2023-04-28T03:53:33.909Z,1.73
2023-04-28T03:57:36.637Z,2.28
2023-04-28T04:01:39.341Z,2.70
2023-04-28T04:05:42.422Z,1.85
2023-04-28T04:09:46.432Z,1.95
2023-04-28T04:13:49.084Z,2.05
2023-04-28T04:17:51.780Z,2.10
2023-04-28T04:21:54.605Z,2.60
2023-04-28T04:25:58.546Z,2.22
2023-04-28T04:30:01.424Z,1.88
2023-04-28T04:34:04.004Z,2.72
2023-04-28T04:38:07.423Z,2.47
2023-04-28T04:42:24.238Z,2.63
2023-04-28T04:46:28.385Z,2.30
2023-04-28T04:50:31.047Z,2.22
2023-04-28T04:54:33.695Z,1.92
2023-04-28T04:58:38.261Z,2.45
2023-04-28T05:02:41.407Z,2.45
2023-04-28T05:06:44.288Z,2.40
2023-04-28T05:10:47.067Z,2.50
2023-04-28T05:14:51.012Z,2.65
2023-04-28T05:18:54.127Z,2.58
2023-04-28T05:22:56.832Z,2.33
2023-04-28T05:27:00.359Z,2.15
2023-04-28T05:31:04.480Z,2.55
2023-04-28T05:35:07.573Z,2.10
2023-04-28T05:39:10.240Z,2.20
2023-04-28T05:43:12.805Z,2.13
2023-04-28T05:47:17.353Z,2.17
2023-04-28T05:51:20.109Z,2.20
2023-04-28T05:55:23.217Z,2.33
2023-04-28T05:59:25.897Z,2.47
2023-04-28T06:03:30.142Z,1.83
2023-04-28T06:07:32.941Z,2.33
2023-04-28T06:11:36.237Z,2.30
2023-04-28T06:15:39.054Z,2.78
2023-04-28T06:19:43.041Z,2.53
2023-04-28T06:23:46.064Z,2.38
2023-04-28T06:27:48.788Z,2.28
2023-04-28T06:31:52.748Z,2.22
2023-04-28T06:35:57.008Z,2.03
2023-04-28T06:40:00.264Z,2.40
2023-04-28T06:44:02.874Z,2.17
2023-04-28T06:48:06.506Z,2.78
2023-04-28T06:52:10.588Z,2.67
2023-04-28T06:56:13.235Z,3.17
2023-04-28T07:00:17.025Z,2.50
2023-04-28T07:04:20.201Z,3.42
2023-04-28T07:08:24.493Z,2.78
2023-04-28T07:12:27.189Z,2.75
2023-04-28T07:16:29.911Z,3.08
2023-04-28T07:20:32.590Z,2.80
2023-04-28T07:24:36.496Z,2.72
2023-04-28T07:28:39.102Z,2.38
2023-04-28T07:32:41.893Z,2.58
2023-04-28T07:36:44.529Z,3.25
2023-04-28T07:40:48.940Z,2.97
2023-04-28T07:44:51.834Z,3.35
2023-04-28T07:48:55.263Z,2.97
2023-04-28T07:52:57.929Z,3.67
2023-04-28T07:57:05.979Z,3.28
2023-04-28T08:01:08.729Z,3.20
2023-04-28T08:05:11.880Z,2.95
2023-04-28T08:09:14.667Z,3.05
2023-04-28T08:13:18.692Z,3.33
2023-04-28T08:17:21.346Z,3.33
2023-04-28T08:21:24.013Z,2.95
2023-04-28T08:25:26.993Z,3.45
2023-04-28T08:29:32.147Z,3.28
2023-04-28T08:33:34.778Z,3.17
2023-04-28T08:37:37.528Z,2.78
2023-04-28T08:41:40.429Z,3.00
2023-04-28T08:45:45.760Z,3.78
2023-04-28T08:49:50.202Z,3.13
2023-04-28T08:58:02.119Z,2.83
2023-04-28T09:02:06.118Z,2.95
2023-04-28T09:06:08.801Z,3.20
2023-04-28T09:10:17.544Z,3.67
2023-04-28T09:14:21.140Z,3.30
2023-04-28T09:18:25.098Z,3.00
2023-04-28T09:22:29.320Z,2.75
2023-04-28T09:26:50.700Z,3.20
2023-04-28T09:30:53.404Z,3.67
2023-04-28T09:34:57.737Z,4.07
2023-04-28T09:39:01.167Z,3.38
2023-04-28T09:43:15.116Z,3.97
2023-04-28T09:47:24.868Z,4.05
2023-04-28T09:51:28.838Z,3.85
2023-04-28T09:55:33.751Z,3.60
2023-04-28T09:59:37.130Z,3.05
2023-04-28T10:03:41.096Z,4.07
2023-04-28T10:07:46.041Z,3.20
2023-04-28T10:11:49.240Z,3.92
2023-04-28T10:15:54.762Z,4.03
2023-04-28T10:19:58.137Z,3.80
2023-04-28T10:24:19.307Z,4.05
2023-04-28T10:28:22.241Z,3.97
2023-04-28T10:32:28.710Z,4.38
2023-04-28T10:36:51.179Z,4.57
2023-04-28T10:40:55.432Z,3.63
2023-04-28T10:44:58.086Z,3.08
2023-04-28T10:49:01.573Z,3.70
2023-04-28T10:53:04.625Z,3.72
2023-04-28T10:57:24.121Z,4.07
2023-04-28T11:01:29.672Z,4.60
2023-04-28T11:05:34.676Z,4.05
2023-04-28T11:09:50.161Z,4.30
2023-04-28T11:13:55.484Z,3.15
2023-04-28T11:17:58.554Z,3.97
2023-04-28T11:22:03.061Z,4.13
2023-04-28T11:26:05.966Z,3.63
2023-04-28T11:30:22.907Z,4.10
2023-04-28T11:34:26.067Z,3.53
2023-04-28T11:38:28.750Z,3.83
2023-04-28T11:42:31.904Z,3.08
2023-04-28T11:46:35.922Z,3.17
2023-04-28T11:50:38.918Z,3.78
2023-04-28T11:54:43.576Z,2.97
2023-04-28T11:58:46.283Z,2.95
2023-04-28T12:02:50.982Z,2.67
2023-04-28T12:07:00.355Z,2.90
2023-04-28T12:11:13.468Z,3.40
2023-04-28T12:15:17.072Z,3.33
2023-04-28T12:19:22.088Z,2.70
2023-04-28T12:23:31.147Z,3.28
2023-04-28T12:27:33.811Z,2.60
2023-04-28T12:31:49.759Z,2.47
2023-04-28T12:35:54.992Z,3.10
2023-04-28T12:39:57.884Z,3.25
2023-04-28T12:44:00.513Z,3.35
2023-04-28T12:48:03.360Z,2.85
2023-04-28T12:52:07.773Z,4.38
2023-04-28T12:56:10.482Z,3.88
2023-04-28T13:00:16.388Z,2.70
2023-04-28T13:04:19.629Z,3.30
2023-04-28T13:08:23.795Z,3.25
2023-04-28T13:12:26.481Z,2.88
2023-04-28T13:16:30.453Z,2.55
2023-04-28T13:20:34.038Z,3.00
2023-04-28T13:24:38.034Z,3.20
2023-04-28T13:28:40.993Z,3.15
2023-04-28T13:32:43.688Z,2.72
2023-04-28T13:36:48.127Z,3.50
2023-04-28T13:40:52.175Z,3.05
2023-04-28T13:44:54.821Z,2.90
2023-04-28T13:48:58.268Z,3.03
2023-04-28T13:53:00.941Z,3.10
2023-04-28T13:57:05.107Z,2.67
2023-04-28T14:01:07.974Z,2.97
2023-04-28T14:05:11.575Z,2.80
2023-04-28T14:09:14.192Z,2.65
2023-04-28T14:13:18.448Z,3.30
2023-04-28T14:17:21.388Z,2.45
2023-04-28T14:21:24.981Z,3.28
2023-04-28T14:25:27.777Z,2.53
2023-04-28T14:29:31.994Z,3.25
2023-04-28T14:33:34.967Z,3.05
2023-04-28T14:37:37.806Z,2.83
2023-04-28T14:41:40.543Z,2.90
2023-04-28T14:45:44.800Z,3.13
2023-04-28T14:49:48.603Z,2.97
2023-04-28T14:53:51.310Z,3.15
2023-04-28T14:57:54.634Z,3.45
2023-04-28T15:01:58.712Z,3.33
2023-04-28T15:06:03.051Z,3.38
2023-04-28T15:10:06.158Z,3.90
2023-04-28T15:14:08.821Z,3.45
2023-04-28T15:18:12.846Z,3.33
2023-04-28T15:22:18.811Z,3.20
2023-04-28T15:26:21.733Z,3.33
2023-04-28T15:30:25.050Z,3.72
2023-04-28T15:34:29.048Z,3.72
2023-04-28T15:38:31.993Z,3.25
2023-04-28T15:42:34.767Z,3.50
2023-04-28T15:46:37.957Z,3.70
2023-04-28T15:50:41.933Z,3.45
2023-04-28T15:54:44.966Z,3.53
2023-04-28T15:58:47.790Z,3.10
2023-04-28T16:02:50.511Z,3.08
2023-04-28T16:06:56.274Z,3.10
2023-04-28T16:10:58.895Z,3.63
2023-04-28T16:15:02.182Z,3.45
2023-04-28T16:19:04.869Z,3.42
2023-04-28T16:23:13.701Z,3.97
2023-04-28T16:27:16.708Z,3.05
2023-04-28T16:31:19.346Z,3.50
2023-04-28T16:35:22.148Z,3.20
2023-04-28T16:39:26.263Z,3.17
2023-04-28T16:43:28.917Z,4.72
2023-04-28T16:47:31.617Z,3.75
2023-04-28T16:51:34.333Z,3.80
2023-04-28T16:55:38.411Z,4.03
2023-04-28T16:59:41.317Z,4.50
2023-04-28T17:03:44.125Z,4.43
2023-04-28T17:07:46.907Z,4.18
2023-04-28T17:11:51.538Z,3.58
2023-04-28T17:15:55.573Z,4.47
2023-04-28T17:19:59.909Z,4.53
2023-04-28T17:24:02.754Z,4.22
2023-04-28T17:28:06.827Z,4.88
2023-04-28T17:32:09.551Z,4.00
2023-04-28T17:36:12.176Z,5.95
2023-04-28T17:40:15.071Z,5.53
2023-04-28T17:44:19.101Z,5.53
2023-04-28T17:48:21.740Z,5.82
2023-04-28T17:52:24.366Z,5.00
2023-04-28T17:56:28.040Z,5.65
2023-04-28T18:00:32.311Z,4.85
2023-04-28T18:04:34.935Z,4.70
2023-04-28T18:08:37.685Z,4.88
2023-04-28T18:12:40.261Z,5.30
2023-04-28T18:16:44.371Z,4.63
2023-04-28T18:20:48.328Z,5.07
2023-04-28T18:24:51.296Z,4.35
2023-04-28T18:28:54.112Z,4.57
2023-04-28T18:32:58.253Z,5.35
2023-04-28T18:37:00.943Z,5.25
2023-04-28T18:41:12.328Z,5.45
2023-04-28T18:45:15.864Z,6.25
2023-04-28T18:49:20.022Z,5.72
2023-04-28T18:53:22.651Z,5.60
2023-04-28T18:57:25.367Z,5.55
2023-04-28T19:01:28.207Z,6.18
2023-04-28T19:05:32.460Z,5.80
2023-04-28T19:09:35.023Z,4.53
2023-04-28T19:13:38.159Z,3.58
2023-04-28T19:17:40.862Z,3.88
2023-04-28T19:21:45.323Z,3.78
2023-04-28T19:25:48.357Z,4.28
2023-04-28T19:29:51.190Z,3.13
2023-04-28T19:33:54.072Z,1.85
2023-04-28T19:37:58.103Z,1.77
2023-04-28T19:42:00.703Z,1.70
2023-04-28T19:46:03.672Z,1.08
2023-04-28T19:50:08.475Z,1.30
2023-04-28T19:54:13.196Z,0.70
2023-04-28T19:58:17.378Z,0.60
2023-04-28T20:02:20.982Z,1.10
2023-04-28T20:06:23.902Z,1.13
2023-04-28T20:10:28.180Z,1.67
2023-04-28T20:14:31.211Z,1.15
2023-04-28T20:18:33.874Z,1.40
2023-04-28T20:22:36.525Z,2.10
2023-04-28T20:26:40.514Z,2.67
2023-04-28T20:30:43.116Z,1.30
2023-04-28T20:34:45.744Z,2.15
2023-04-28T20:38:48.375Z,1.75
2023-04-28T20:42:52.491Z,1.45
2023-04-28T20:46:55.321Z,1.20
2023-04-28T20:50:58.837Z,1.17
2023-04-28T20:55:01.498Z,1.23
2023-04-28T20:59:05.568Z,1.27
2023-04-28T21:03:08.529Z,1.50
2023-04-28T21:07:11.405Z,1.60
2023-04-28T21:11:14.307Z,1.40
2023-04-28T21:15:18.393Z,0.90
2023-04-28T21:19:21.091Z,1.35
2023-04-28T21:23:23.857Z,1.05
2023-04-28T21:27:26.485Z,1.52
2023-04-28T21:31:30.737Z,1.42
2023-04-28T21:35:33.484Z,1.30
2023-04-28T21:39:36.695Z,1.40
2023-04-28T21:43:39.439Z,1.35
2023-04-28T21:47:43.700Z,1.75
2023-04-28T21:51:46.370Z,1.13
2023-04-28T21:55:49.098Z,1.40
2023-04-28T21:59:51.958Z,1.65
2023-04-28T22:03:56.478Z,1.85
2023-04-28T22:07:59.340Z,1.88
2023-04-28T22:12:02.178Z,1.52
2023-04-28T22:16:05.868Z,1.30
2023-04-28T22:20:11.772Z,1.38
2023-04-28T22:24:14.690Z,1.83
2023-04-28T22:28:17.972Z,1.67
2023-04-28T22:32:20.625Z,1.73
2023-04-28T22:36:24.650Z,1.67
2023-04-28T22:40:27.630Z,1.25
2023-04-28T22:44:30.317Z,1.50
2023-04-28T22:48:33.381Z,1.55
2023-04-28T22:52:37.918Z,1.40
2023-04-28T22:56:41.200Z,1.83
2023-04-28T23:00:43.829Z,1.70
2023-04-28T23:04:46.442Z,1.55
2023-04-28T23:08:50.420Z,1.42
2023-04-28T23:12:53.024Z,2.00
2023-04-28T23:16:55.615Z,1.55
2023-04-28T23:20:58.206Z,1.75
2023-04-28T23:25:02.175Z,1.27
2023-04-28T23:29:04.773Z,1.70
2023-04-28T23:33:07.895Z,1.40
2023-04-28T23:37:10.482Z,1.90
2023-04-28T23:41:14.445Z,1.88
2023-04-28T23:45:17.248Z,1.77
2023-04-28T23:49:21.002Z,1.73
2023-04-28T23:53:23.557Z,2.13
2023-04-28T23:57:27.502Z,2.13
